sensor_id;sensor_type;location;lat;lon;timestamp;P1;durP1;ratioP1;P2;durP2;ratioP2
5752;SDS011;2901;42.140;24.760;2022-10-16T00:00:30;5.03;;;4.60;;
5752;SDS011;2901;42.140;24.760;2022-10-16T00:02:55;6.18;;;4.93;;
5752;SDS011;2901;42.140;24.760;2022-10-16T00:05:21;5.25;;;4.60;;
5752;SDS011;2901;42.140;24.760;2022-10-16T00:07:46;4.78;;;4.38;;
5752;SDS011;2901;42.140;24.760;2022-10-16T00:10:12;7.75;;;5.03;;
5752;SDS011;2901;42.140;24.760;2022-10-16T00:12:37;11.70;;;5.05;;
5752;SDS011;2901;42.140;24.760;2022-10-16T00:15:02;6.60;;;5.90;;
5752;SDS011;2901;42.140;24.760;2022-10-16T00:17:29;5.35;;;5.05;;
5752;SDS011;2901;42.140;24.760;2022-10-16T00:19:55;6.88;;;5.10;;
5752;SDS011;2901;42.140;24.760;2022-10-16T00:22:20;5.28;;;4.82;;
5752;SDS011;2901;42.140;24.760;2022-10-16T00:24:46;7.00;;;5.30;;
5752;SDS011;2901;42.140;24.760;2022-10-16T00:27:11;5.45;;;4.85;;
5752;SDS011;2901;42.140;24.760;2022-10-16T00:29:36;4.93;;;4.60;;
5752;SDS011;2901;42.140;24.760;2022-10-16T00:32:02;5.40;;;4.90;;
5752;SDS011;2901;42.140;24.760;2022-10-16T00:34:27;5.63;;;5.20;;
5752;SDS011;2901;42.140;24.760;2022-10-16T00:36:53;6.97;;;5.85;;
5752;SDS011;2901;42.140;24.760;2022-10-16T00:39:18;5.28;;;4.85;;
5752;SDS011;2901;42.140;24.760;2022-10-16T00:41:44;5.93;;;5.40;;
5752;SDS011;2901;42.140;24.760;2022-10-16T00:47:15;6.70;;;5.80;;
5752;SDS011;2901;42.140;24.760;2022-10-16T00:49:56;6.50;;;4.85;;
5752;SDS011;2901;42.140;24.760;2022-10-16T00:52:27;6.22;;;5.65;;
5752;SDS011;2901;42.140;24.760;2022-10-16T00:54:53;8.23;;;6.70;;
5752;SDS011;2901;42.140;24.760;2022-10-16T00:57:19;11.13;;;7.95;;
5752;SDS011;2901;42.140;24.760;2022-10-16T00:59:45;15.10;;;8.27;;
5752;SDS011;2901;42.140;24.760;2022-10-16T01:02:14;15.07;;;8.75;;
5752;SDS011;2901;42.140;24.760;2022-10-16T01:04:42;12.82;;;8.40;;
5752;SDS011;2901;42.140;24.760;2022-10-16T01:12:55;7.97;;;7.25;;
5752;SDS011;2901;42.140;24.760;2022-10-16T01:18:23;9.38;;;7.10;;
5752;SDS011;2901;42.140;24.760;2022-10-16T01:20:53;9.50;;;7.45;;
5752;SDS011;2901;42.140;24.760;2022-10-16T01:31:19;7.40;;;6.70;;
5752;SDS011;2901;42.140;24.760;2022-10-16T01:36:39;10.98;;;6.82;;
5752;SDS011;2901;42.140;24.760;2022-10-16T01:39:10;10.07;;;7.93;;
5752;SDS011;2901;42.140;24.760;2022-10-16T01:41:38;8.68;;;7.93;;
5752;SDS011;2901;42.140;24.760;2022-10-16T01:46:36;8.57;;;7.78;;
5752;SDS011;2901;42.140;24.760;2022-10-16T01:49:04;9.27;;;7.88;;
5752;SDS011;2901;42.140;24.760;2022-10-16T01:51:31;7.90;;;7.20;;
5752;SDS011;2901;42.140;24.760;2022-10-16T01:53:58;11.95;;;8.43;;
5752;SDS011;2901;42.140;24.760;2022-10-16T01:56:26;8.52;;;7.85;;
5752;SDS011;2901;42.140;24.760;2022-10-16T01:59:01;8.32;;;7.55;;
5752;SDS011;2901;42.140;24.760;2022-10-16T02:01:40;8.23;;;7.38;;
5752;SDS011;2901;42.140;24.760;2022-10-16T02:04:11;7.60;;;7.05;;
5752;SDS011;2901;42.140;24.760;2022-10-16T02:06:46;7.93;;;7.32;;
5752;SDS011;2901;42.140;24.760;2022-10-16T02:09:11;8.50;;;7.70;;
5752;SDS011;2901;42.140;24.760;2022-10-16T02:11:37;11.23;;;7.38;;
5752;SDS011;2901;42.140;24.760;2022-10-16T02:14:04;8.85;;;7.45;;
5752;SDS011;2901;42.140;24.760;2022-10-16T02:16:35;8.20;;;7.63;;
5752;SDS011;2901;42.140;24.760;2022-10-16T02:19:05;8.90;;;8.00;;
5752;SDS011;2901;42.140;24.760;2022-10-16T02:21:38;9.85;;;7.70;;
5752;SDS011;2901;42.140;24.760;2022-10-16T02:27:14;12.70;;;7.80;;
5752;SDS011;2901;42.140;24.760;2022-10-16T02:29:49;17.48;;;7.88;;
5752;SDS011;2901;42.140;24.760;2022-10-16T02:32:24;10.45;;;8.45;;
5752;SDS011;2901;42.140;24.760;2022-10-16T02:34:55;15.13;;;8.98;;
5752;SDS011;2901;42.140;24.760;2022-10-16T02:37:22;8.77;;;7.97;;
5752;SDS011;2901;42.140;24.760;2022-10-16T02:39:49;23.95;;;8.57;;
5752;SDS011;2901;42.140;24.760;2022-10-16T02:42:15;14.73;;;8.15;;
5752;SDS011;2901;42.140;24.760;2022-10-16T02:44:43;12.38;;;8.75;;
5752;SDS011;2901;42.140;24.760;2022-10-16T02:47:08;11.55;;;7.32;;
5752;SDS011;2901;42.140;24.760;2022-10-16T02:49:33;8.65;;;7.90;;
5752;SDS011;2901;42.140;24.760;2022-10-16T02:51:59;10.90;;;7.53;;
5752;SDS011;2901;42.140;24.760;2022-10-16T02:54:24;14.35;;;8.35;;
5752;SDS011;2901;42.140;24.760;2022-10-16T02:56:49;10.80;;;7.28;;
5752;SDS011;2901;42.140;24.760;2022-10-16T02:59:15;14.85;;;7.80;;
5752;SDS011;2901;42.140;24.760;2022-10-16T03:01:41;7.95;;;7.20;;
5752;SDS011;2901;42.140;24.760;2022-10-16T03:04:07;12.30;;;8.45;;
5752;SDS011;2901;42.140;24.760;2022-10-16T03:06:32;8.73;;;7.18;;
5752;SDS011;2901;42.140;24.760;2022-10-16T03:08:57;10.15;;;7.90;;
5752;SDS011;2901;42.140;24.760;2022-10-16T03:11:23;8.75;;;8.05;;
5752;SDS011;2901;42.140;24.760;2022-10-16T03:13:48;8.15;;;7.20;;
5752;SDS011;2901;42.140;24.760;2022-10-16T03:16:13;10.38;;;9.35;;
5752;SDS011;2901;42.140;24.760;2022-10-16T03:18:39;11.85;;;10.40;;
5752;SDS011;2901;42.140;24.760;2022-10-16T03:21:04;9.30;;;7.93;;
5752;SDS011;2901;42.140;24.760;2022-10-16T03:23:30;15.15;;;8.48;;
5752;SDS011;2901;42.140;24.760;2022-10-16T03:25:55;10.23;;;7.82;;
5752;SDS011;2901;42.140;24.760;2022-10-16T03:28:20;12.18;;;8.32;;
5752;SDS011;2901;42.140;24.760;2022-10-16T03:30:46;8.88;;;7.78;;
5752;SDS011;2901;42.140;24.760;2022-10-16T03:33:11;12.60;;;8.25;;
5752;SDS011;2901;42.140;24.760;2022-10-16T03:35:37;11.07;;;8.40;;
5752;SDS011;2901;42.140;24.760;2022-10-16T03:38:02;11.15;;;8.10;;
5752;SDS011;2901;42.140;24.760;2022-10-16T03:40:28;13.82;;;9.10;;
5752;SDS011;2901;42.140;24.760;2022-10-16T03:42:53;11.15;;;7.80;;
5752;SDS011;2901;42.140;24.760;2022-10-16T03:45:22;12.27;;;8.85;;
5752;SDS011;2901;42.140;24.760;2022-10-16T03:47:48;14.27;;;9.02;;
5752;SDS011;2901;42.140;24.760;2022-10-16T03:50:13;11.05;;;9.95;;
5752;SDS011;2901;42.140;24.760;2022-10-16T03:52:39;11.13;;;10.13;;
5752;SDS011;2901;42.140;24.760;2022-10-16T03:55:04;14.55;;;10.93;;
5752;SDS011;2901;42.140;24.760;2022-10-16T03:57:30;10.68;;;9.80;;
5752;SDS011;2901;42.140;24.760;2022-10-16T03:59:56;10.18;;;9.27;;
5752;SDS011;2901;42.140;24.760;2022-10-16T04:02:21;15.93;;;11.07;;
5752;SDS011;2901;42.140;24.760;2022-10-16T04:04:47;14.48;;;10.98;;
5752;SDS011;2901;42.140;24.760;2022-10-16T04:07:12;14.45;;;10.52;;
5752;SDS011;2901;42.140;24.760;2022-10-16T04:09:37;13.05;;;11.75;;
5752;SDS011;2901;42.140;24.760;2022-10-16T04:12:03;15.43;;;10.80;;
5752;SDS011;2901;42.140;24.760;2022-10-16T04:14:28;14.80;;;11.52;;
5752;SDS011;2901;42.140;24.760;2022-10-16T04:16:53;12.50;;;11.27;;
5752;SDS011;2901;42.140;24.760;2022-10-16T04:19:19;24.02;;;12.30;;
5752;SDS011;2901;42.140;24.760;2022-10-16T04:21:44;11.85;;;10.90;;
5752;SDS011;2901;42.140;24.760;2022-10-16T04:24:10;14.73;;;11.88;;
5752;SDS011;2901;42.140;24.760;2022-10-16T04:26:36;18.10;;;11.38;;
5752;SDS011;2901;42.140;24.760;2022-10-16T04:29:02;12.48;;;11.30;;
5752;SDS011;2901;42.140;24.760;2022-10-16T04:31:27;10.50;;;9.65;;
5752;SDS011;2901;42.140;24.760;2022-10-16T04:33:52;10.15;;;9.18;;
5752;SDS011;2901;42.140;24.760;2022-10-16T04:36:18;8.90;;;8.32;;
5752;SDS011;2901;42.140;24.760;2022-10-16T04:38:43;8.38;;;7.68;;
5752;SDS011;2901;42.140;24.760;2022-10-16T04:41:09;9.05;;;8.38;;
5752;SDS011;2901;42.140;24.760;2022-10-16T04:43:34;8.77;;;8.13;;
5752;SDS011;2901;42.140;24.760;2022-10-16T04:46:00;9.60;;;8.88;;
5752;SDS011;2901;42.140;24.760;2022-10-16T04:48:25;10.15;;;9.15;;
5752;SDS011;2901;42.140;24.760;2022-10-16T04:50:51;12.02;;;9.23;;
5752;SDS011;2901;42.140;24.760;2022-10-16T04:53:16;9.63;;;8.75;;
5752;SDS011;2901;42.140;24.760;2022-10-16T04:55:42;10.77;;;9.27;;
5752;SDS011;2901;42.140;24.760;2022-10-16T04:58:08;9.30;;;8.50;;
5752;SDS011;2901;42.140;24.760;2022-10-16T05:00:34;8.57;;;7.80;;
5752;SDS011;2901;42.140;24.760;2022-10-16T05:03:00;13.90;;;9.02;;
5752;SDS011;2901;42.140;24.760;2022-10-16T05:05:26;9.27;;;8.37;;
5752;SDS011;2901;42.140;24.760;2022-10-16T05:07:52;13.70;;;8.98;;
5752;SDS011;2901;42.140;24.760;2022-10-16T05:10:18;9.18;;;8.23;;
5752;SDS011;2901;42.140;24.760;2022-10-16T05:12:43;8.75;;;8.00;;
5752;SDS011;2901;42.140;24.760;2022-10-16T05:15:09;12.65;;;11.60;;
5752;SDS011;2901;42.140;24.760;2022-10-16T05:17:35;14.50;;;9.90;;
5752;SDS011;2901;42.140;24.760;2022-10-16T05:20:01;9.75;;;8.48;;
5752;SDS011;2901;42.140;24.760;2022-10-16T05:22:28;12.57;;;8.90;;
5752;SDS011;2901;42.140;24.760;2022-10-16T05:24:53;10.57;;;8.77;;
5752;SDS011;2901;42.140;24.760;2022-10-16T05:27:19;8.95;;;8.07;;
5752;SDS011;2901;42.140;24.760;2022-10-16T05:29:45;8.15;;;7.55;;
5752;SDS011;2901;42.140;24.760;2022-10-16T05:32:12;13.68;;;9.27;;
5752;SDS011;2901;42.140;24.760;2022-10-16T05:34:37;15.35;;;8.88;;
5752;SDS011;2901;42.140;24.760;2022-10-16T05:37:03;10.60;;;8.93;;
5752;SDS011;2901;42.140;24.760;2022-10-16T05:39:28;10.40;;;9.50;;
5752;SDS011;2901;42.140;24.760;2022-10-16T05:41:53;10.82;;;9.02;;
5752;SDS011;2901;42.140;24.760;2022-10-16T05:44:19;10.40;;;9.23;;
5752;SDS011;2901;42.140;24.760;2022-10-16T05:46:45;12.20;;;9.77;;
5752;SDS011;2901;42.140;24.760;2022-10-16T05:49:11;15.70;;;10.75;;
5752;SDS011;2901;42.140;24.760;2022-10-16T05:51:37;10.98;;;9.90;;
5752;SDS011;2901;42.140;24.760;2022-10-16T05:54:02;13.68;;;9.02;;
5752;SDS011;2901;42.140;24.760;2022-10-16T05:56:28;12.50;;;8.63;;
5752;SDS011;2901;42.140;24.760;2022-10-16T05:58:53;13.15;;;8.63;;
5752;SDS011;2901;42.140;24.760;2022-10-16T06:01:19;10.30;;;8.32;;
5752;SDS011;2901;42.140;24.760;2022-10-16T06:03:45;10.45;;;9.50;;
5752;SDS011;2901;42.140;24.760;2022-10-16T06:06:12;10.13;;;9.05;;
5752;SDS011;2901;42.140;24.760;2022-10-16T06:08:39;17.15;;;9.93;;
5752;SDS011;2901;42.140;24.760;2022-10-16T06:11:09;8.95;;;7.97;;
5752;SDS011;2901;42.140;24.760;2022-10-16T06:13:38;7.70;;;7.00;;
5752;SDS011;2901;42.140;24.760;2022-10-16T06:16:06;7.97;;;7.38;;
5752;SDS011;2901;42.140;24.760;2022-10-16T06:18:32;7.95;;;6.55;;
5752;SDS011;2901;42.140;24.760;2022-10-16T06:20:58;6.22;;;5.82;;
5752;SDS011;2901;42.140;24.760;2022-10-16T06:23:24;6.00;;;5.65;;
5752;SDS011;2901;42.140;24.760;2022-10-16T06:25:49;5.65;;;5.32;;
5752;SDS011;2901;42.140;24.760;2022-10-16T06:28:15;10.18;;;5.72;;
5752;SDS011;2901;42.140;24.760;2022-10-16T06:30:41;5.95;;;4.90;;
5752;SDS011;2901;42.140;24.760;2022-10-16T06:33:08;6.40;;;6.00;;
5752;SDS011;2901;42.140;24.760;2022-10-16T06:35:35;6.68;;;6.18;;
5752;SDS011;2901;42.140;24.760;2022-10-16T06:38:00;5.93;;;5.53;;
5752;SDS011;2901;42.140;24.760;2022-10-16T06:40:25;6.88;;;5.97;;
5752;SDS011;2901;42.140;24.760;2022-10-16T06:42:51;7.82;;;6.15;;
5752;SDS011;2901;42.140;24.760;2022-10-16T06:45:19;10.68;;;5.60;;
5752;SDS011;2901;42.140;24.760;2022-10-16T06:47:44;7.25;;;5.93;;
5752;SDS011;2901;42.140;24.760;2022-10-16T06:50:10;6.72;;;6.13;;
5752;SDS011;2901;42.140;24.760;2022-10-16T06:52:35;6.47;;;5.97;;
5752;SDS011;2901;42.140;24.760;2022-10-16T06:55:00;7.03;;;6.43;;
5752;SDS011;2901;42.140;24.760;2022-10-16T06:57:27;6.82;;;6.13;;
5752;SDS011;2901;42.140;24.760;2022-10-16T06:59:53;7.65;;;6.68;;
5752;SDS011;2901;42.140;24.760;2022-10-16T07:02:19;9.32;;;6.32;;
5752;SDS011;2901;42.140;24.760;2022-10-16T07:04:44;7.72;;;7.13;;
5752;SDS011;2901;42.140;24.760;2022-10-16T07:07:09;9.82;;;6.97;;
5752;SDS011;2901;42.140;24.760;2022-10-16T07:09:35;8.38;;;7.57;;
5752;SDS011;2901;42.140;24.760;2022-10-16T07:12:00;7.20;;;6.57;;
5752;SDS011;2901;42.140;24.760;2022-10-16T07:14:26;7.10;;;6.70;;
5752;SDS011;2901;42.140;24.760;2022-10-16T07:16:51;8.27;;;7.45;;
5752;SDS011;2901;42.140;24.760;2022-10-16T07:19:17;8.77;;;6.85;;
5752;SDS011;2901;42.140;24.760;2022-10-16T07:21:43;7.65;;;6.32;;
5752;SDS011;2901;42.140;24.760;2022-10-16T07:24:16;6.32;;;5.82;;
5752;SDS011;2901;42.140;24.760;2022-10-16T07:26:42;7.13;;;6.22;;
5752;SDS011;2901;42.140;24.760;2022-10-16T07:29:13;8.27;;;6.60;;
5752;SDS011;2901;42.140;24.760;2022-10-16T07:31:41;7.05;;;6.40;;
5752;SDS011;2901;42.140;24.760;2022-10-16T07:34:06;6.90;;;6.15;;
5752;SDS011;2901;42.140;24.760;2022-10-16T07:36:32;7.03;;;6.63;;
5752;SDS011;2901;42.140;24.760;2022-10-16T07:38:58;6.22;;;5.80;;
5752;SDS011;2901;42.140;24.760;2022-10-16T07:41:23;6.85;;;6.15;;
5752;SDS011;2901;42.140;24.760;2022-10-16T07:43:50;7.13;;;5.97;;
5752;SDS011;2901;42.140;24.760;2022-10-16T07:46:20;5.90;;;5.53;;
5752;SDS011;2901;42.140;24.760;2022-10-16T07:48:46;6.07;;;5.57;;
5752;SDS011;2901;42.140;24.760;2022-10-16T07:51:17;8.00;;;5.45;;
5752;SDS011;2901;42.140;24.760;2022-10-16T07:53:44;5.93;;;5.55;;
5752;SDS011;2901;42.140;24.760;2022-10-16T07:56:10;7.75;;;6.50;;
5752;SDS011;2901;42.140;24.760;2022-10-16T07:58:36;6.03;;;5.50;;
5752;SDS011;2901;42.140;24.760;2022-10-16T08:01:03;6.00;;;5.32;;
5752;SDS011;2901;42.140;24.760;2022-10-16T08:03:36;6.50;;;6.20;;
5752;SDS011;2901;42.140;24.760;2022-10-16T08:06:02;11.18;;;5.35;;
5752;SDS011;2901;42.140;24.760;2022-10-16T08:08:29;6.15;;;5.57;;
5752;SDS011;2901;42.140;24.760;2022-10-16T08:10:55;7.35;;;6.65;;
5752;SDS011;2901;42.140;24.760;2022-10-16T08:13:20;6.50;;;5.97;;
5752;SDS011;2901;42.140;24.760;2022-10-16T08:15:46;6.03;;;5.53;;
5752;SDS011;2901;42.140;24.760;2022-10-16T08:18:12;8.82;;;5.97;;
5752;SDS011;2901;42.140;24.760;2022-10-16T08:20:39;8.95;;;5.60;;
5752;SDS011;2901;42.140;24.760;2022-10-16T08:23:05;6.03;;;5.63;;
5752;SDS011;2901;42.140;24.760;2022-10-16T08:25:32;7.20;;;4.90;;
5752;SDS011;2901;42.140;24.760;2022-10-16T08:27:59;5.20;;;4.80;;
5752;SDS011;2901;42.140;24.760;2022-10-16T08:30:24;5.50;;;4.97;;
5752;SDS011;2901;42.140;24.760;2022-10-16T08:32:50;5.43;;;5.00;;
5752;SDS011;2901;42.140;24.760;2022-10-16T08:35:15;5.90;;;4.90;;
5752;SDS011;2901;42.140;24.760;2022-10-16T08:37:41;5.80;;;5.28;;
5752;SDS011;2901;42.140;24.760;2022-10-16T08:40:14;8.68;;;5.38;;
5752;SDS011;2901;42.140;24.760;2022-10-16T08:50:49;5.15;;;4.70;;
5752;SDS011;2901;42.140;24.760;2022-10-16T08:53:38;4.63;;;4.32;;
5752;SDS011;2901;42.140;24.760;2022-10-16T08:56:06;4.70;;;4.40;;
5752;SDS011;2901;42.140;24.760;2022-10-16T08:58:32;5.25;;;4.78;;
5752;SDS011;2901;42.140;24.760;2022-10-16T09:01:01;5.43;;;5.13;;
5752;SDS011;2901;42.140;24.760;2022-10-16T09:06:05;5.03;;;4.50;;
5752;SDS011;2901;42.140;24.760;2022-10-16T09:14:39;4.82;;;4.20;;
5752;SDS011;2901;42.140;24.760;2022-10-16T09:20:18;9.98;;;4.97;;
5752;SDS011;2901;42.140;24.760;2022-10-16T09:23:00;4.75;;;4.32;;
5752;SDS011;2901;42.140;24.760;2022-10-16T09:25:37;3.83;;;3.63;;
5752;SDS011;2901;42.140;24.760;2022-10-16T09:28:04;6.70;;;4.32;;
5752;SDS011;2901;42.140;24.760;2022-10-16T09:30:29;9.55;;;4.30;;
5752;SDS011;2901;42.140;24.760;2022-10-16T09:32:55;4.95;;;4.38;;
5752;SDS011;2901;42.140;24.760;2022-10-16T09:35:27;5.75;;;4.45;;
5752;SDS011;2901;42.140;24.760;2022-10-16T09:37:58;4.60;;;4.28;;
5752;SDS011;2901;42.140;24.760;2022-10-16T09:40:42;5.40;;;4.57;;
5752;SDS011;2901;42.140;24.760;2022-10-16T09:48:39;6.00;;;4.75;;
5752;SDS011;2901;42.140;24.760;2022-10-16T09:51:19;3.20;;;3.00;;
5752;SDS011;2901;42.140;24.760;2022-10-16T09:53:48;3.25;;;2.67;;
5752;SDS011;2901;42.140;24.760;2022-10-16T09:56:24;5.43;;;3.22;;
5752;SDS011;2901;42.140;24.760;2022-10-16T09:58:58;3.88;;;3.38;;
5752;SDS011;2901;42.140;24.760;2022-10-16T10:01:42;3.75;;;3.33;;
5752;SDS011;2901;42.140;24.760;2022-10-16T10:04:11;7.63;;;3.83;;
5752;SDS011;2901;42.140;24.760;2022-10-16T10:06:40;3.45;;;3.30;;
5752;SDS011;2901;42.140;24.760;2022-10-16T10:11:58;4.38;;;4.05;;
5752;SDS011;2901;42.140;24.760;2022-10-16T10:19:36;6.50;;;3.80;;
5752;SDS011;2901;42.140;24.760;2022-10-16T10:22:29;4.18;;;3.92;;
5752;SDS011;2901;42.140;24.760;2022-10-16T10:30:20;3.65;;;3.40;;
5752;SDS011;2901;42.140;24.760;2022-10-16T10:52:09;4.00;;;3.40;;
5752;SDS011;2901;42.140;24.760;2022-10-16T10:57:33;3.45;;;3.28;;
5752;SDS011;2901;42.140;24.760;2022-10-16T11:05:58;4.72;;;3.50;;
5752;SDS011;2901;42.140;24.760;2022-10-16T11:11:14;3.63;;;3.00;;
5752;SDS011;2901;42.140;24.760;2022-10-16T11:16:25;4.30;;;2.80;;
5752;SDS011;2901;42.140;24.760;2022-10-16T11:18:55;3.35;;;3.15;;
5752;SDS011;2901;42.140;24.760;2022-10-16T11:21:21;3.88;;;3.58;;
5752;SDS011;2901;42.140;24.760;2022-10-16T11:26:16;4.82;;;3.13;;
5752;SDS011;2901;42.140;24.760;2022-10-16T11:28:47;4.32;;;3.03;;
5752;SDS011;2901;42.140;24.760;2022-10-16T11:36:53;3.15;;;2.88;;
5752;SDS011;2901;42.140;24.760;2022-10-16T11:39:21;3.70;;;3.50;;
5752;SDS011;2901;42.140;24.760;2022-10-16T11:47:31;3.40;;;3.10;;
5752;SDS011;2901;42.140;24.760;2022-10-16T11:55:31;3.03;;;2.75;;
5752;SDS011;2901;42.140;24.760;2022-10-16T12:08:56;3.67;;;2.90;;
5752;SDS011;2901;42.140;24.760;2022-10-16T12:16:58;3.53;;;3.10;;
5752;SDS011;2901;42.140;24.760;2022-10-16T12:19:26;2.88;;;2.78;;
5752;SDS011;2901;42.140;24.760;2022-10-16T12:21:57;3.97;;;3.58;;
5752;SDS011;2901;42.140;24.760;2022-10-16T12:27:01;4.47;;;3.97;;
5752;SDS011;2901;42.140;24.760;2022-10-16T12:29:34;3.65;;;3.45;;
5752;SDS011;2901;42.140;24.760;2022-10-16T12:32:05;3.20;;;2.90;;
5752;SDS011;2901;42.140;24.760;2022-10-16T12:34:51;3.38;;;3.28;;
5752;SDS011;2901;42.140;24.760;2022-10-16T12:37:24;5.30;;;3.95;;
5752;SDS011;2901;42.140;24.760;2022-10-16T12:39:53;5.45;;;3.35;;
5752;SDS011;2901;42.140;24.760;2022-10-16T12:42:30;4.28;;;3.88;;
5752;SDS011;2901;42.140;24.760;2022-10-16T12:44:58;5.40;;;3.67;;
5752;SDS011;2901;42.140;24.760;2022-10-16T12:49:58;4.00;;;3.60;;
5752;SDS011;2901;42.140;24.760;2022-10-16T12:54:59;3.72;;;3.53;;
5752;SDS011;2901;42.140;24.760;2022-10-16T13:16:50;3.97;;;3.67;;
5752;SDS011;2901;42.140;24.760;2022-10-16T13:19:47;4.40;;;4.10;;
5752;SDS011;2901;42.140;24.760;2022-10-16T13:22:24;5.00;;;4.70;;
5752;SDS011;2901;42.140;24.760;2022-10-16T13:28:06;4.15;;;3.83;;
5752;SDS011;2901;42.140;24.760;2022-10-16T13:30:37;5.25;;;3.42;;
5752;SDS011;2901;42.140;24.760;2022-10-16T13:35:46;5.55;;;5.05;;
5752;SDS011;2901;42.140;24.760;2022-10-16T13:38:19;3.97;;;3.67;;
5752;SDS011;2901;42.140;24.760;2022-10-16T13:43:28;4.40;;;4.10;;
5752;SDS011;2901;42.140;24.760;2022-10-16T13:46:19;4.25;;;3.95;;
5752;SDS011;2901;42.140;24.760;2022-10-16T13:49:03;4.00;;;3.80;;
5752;SDS011;2901;42.140;24.760;2022-10-16T13:51:31;8.68;;;4.43;;
5752;SDS011;2901;42.140;24.760;2022-10-16T13:53:57;7.80;;;3.92;;
5752;SDS011;2901;42.140;24.760;2022-10-16T13:56:30;5.43;;;4.57;;
5752;SDS011;2901;42.140;24.760;2022-10-16T14:01:31;5.50;;;3.75;;
5752;SDS011;2901;42.140;24.760;2022-10-16T14:04:08;4.72;;;4.15;;
5752;SDS011;2901;42.140;24.760;2022-10-16T14:06:36;4.25;;;3.85;;
5752;SDS011;2901;42.140;24.760;2022-10-16T14:09:07;7.57;;;4.47;;
5752;SDS011;2901;42.140;24.760;2022-10-16T14:11:44;5.18;;;4.68;;
5752;SDS011;2901;42.140;24.760;2022-10-16T14:14:18;4.97;;;4.60;;
5752;SDS011;2901;42.140;24.760;2022-10-16T14:16:45;4.55;;;4.25;;
5752;SDS011;2901;42.140;24.760;2022-10-16T14:19:22;4.72;;;4.43;;
5752;SDS011;2901;42.140;24.760;2022-10-16T14:21:51;5.60;;;5.10;;
5752;SDS011;2901;42.140;24.760;2022-10-16T14:24:32;5.18;;;4.55;;
5752;SDS011;2901;42.140;24.760;2022-10-16T14:27:00;6.10;;;4.68;;
5752;SDS011;2901;42.140;24.760;2022-10-16T14:29:27;8.55;;;4.82;;
5752;SDS011;2901;42.140;24.760;2022-10-16T14:32:01;5.32;;;4.85;;
5752;SDS011;2901;42.140;24.760;2022-10-16T14:34:29;4.88;;;4.47;;
5752;SDS011;2901;42.140;24.760;2022-10-16T14:36:56;4.78;;;4.13;;
5752;SDS011;2901;42.140;24.760;2022-10-16T14:39:25;8.05;;;4.88;;
5752;SDS011;2901;42.140;24.760;2022-10-16T14:41:52;6.20;;;4.93;;
5752;SDS011;2901;42.140;24.760;2022-10-16T14:44:21;5.03;;;4.47;;
5752;SDS011;2901;42.140;24.760;2022-10-16T14:46:53;4.50;;;4.25;;
5752;SDS011;2901;42.140;24.760;2022-10-16T14:49:19;6.20;;;4.38;;
5752;SDS011;2901;42.140;24.760;2022-10-16T14:51:47;5.45;;;4.82;;
5752;SDS011;2901;42.140;24.760;2022-10-16T14:54:13;4.70;;;4.40;;
5752;SDS011;2901;42.140;24.760;2022-10-16T14:56:47;5.30;;;4.57;;
5752;SDS011;2901;42.140;24.760;2022-10-16T15:01:55;7.72;;;5.28;;
5752;SDS011;2901;42.140;24.760;2022-10-16T15:04:20;6.30;;;5.00;;
5752;SDS011;2901;42.140;24.760;2022-10-16T15:06:46;8.95;;;4.45;;
5752;SDS011;2901;42.140;24.760;2022-10-16T15:09:11;7.07;;;5.47;;
5752;SDS011;2901;42.140;24.760;2022-10-16T15:11:37;8.07;;;5.65;;
5752;SDS011;2901;42.140;24.760;2022-10-16T15:14:02;6.22;;;5.53;;
5752;SDS011;2901;42.140;24.760;2022-10-16T15:16:28;10.73;;;5.57;;
5752;SDS011;2901;42.140;24.760;2022-10-16T15:18:55;5.05;;;4.75;;
5752;SDS011;2901;42.140;24.760;2022-10-16T15:21:22;13.75;;;5.60;;
5752;SDS011;2901;42.140;24.760;2022-10-16T15:23:51;8.00;;;5.18;;
5752;SDS011;2901;42.140;24.760;2022-10-16T15:26:16;11.63;;;5.15;;
5752;SDS011;2901;42.140;24.760;2022-10-16T15:28:41;15.90;;;6.05;;
5752;SDS011;2901;42.140;24.760;2022-10-16T15:31:07;12.65;;;6.32;;
5752;SDS011;2901;42.140;24.760;2022-10-16T15:33:32;9.73;;;5.72;;
5752;SDS011;2901;42.140;24.760;2022-10-16T15:35:59;8.75;;;5.05;;
5752;SDS011;2901;42.140;24.760;2022-10-16T15:38:26;5.85;;;5.00;;
5752;SDS011;2901;42.140;24.760;2022-10-16T15:40:52;7.43;;;5.00;;
5752;SDS011;2901;42.140;24.760;2022-10-16T15:43:18;12.35;;;6.93;;
5752;SDS011;2901;42.140;24.760;2022-10-16T15:45:44;10.75;;;7.85;;
5752;SDS011;2901;42.140;24.760;2022-10-16T15:48:19;11.23;;;7.78;;
5752;SDS011;2901;42.140;24.760;2022-10-16T15:50:44;10.90;;;7.00;;
5752;SDS011;2901;42.140;24.760;2022-10-16T15:53:10;10.88;;;5.30;;
5752;SDS011;2901;42.140;24.760;2022-10-16T15:55:35;10.25;;;6.13;;
5752;SDS011;2901;42.140;24.760;2022-10-16T15:58:02;5.43;;;5.13;;
5752;SDS011;2901;42.140;24.760;2022-10-16T16:00:28;7.65;;;6.28;;
5752;SDS011;2901;42.140;24.760;2022-10-16T16:02:54;5.88;;;5.43;;
5752;SDS011;2901;42.140;24.760;2022-10-16T16:05:21;6.03;;;5.00;;
5752;SDS011;2901;42.140;24.760;2022-10-16T16:07:47;8.38;;;6.40;;
5752;SDS011;2901;42.140;24.760;2022-10-16T16:10:13;11.15;;;5.35;;
5752;SDS011;2901;42.140;24.760;2022-10-16T16:12:39;9.85;;;5.50;;
5752;SDS011;2901;42.140;24.760;2022-10-16T16:15:05;5.88;;;5.47;;
5752;SDS011;2901;42.140;24.760;2022-10-16T16:17:32;6.50;;;5.95;;
5752;SDS011;2901;42.140;24.760;2022-10-16T16:19:58;8.60;;;6.50;;
5752;SDS011;2901;42.140;24.760;2022-10-16T16:22:24;8.65;;;6.68;;
5752;SDS011;2901;42.140;24.760;2022-10-16T16:24:49;13.93;;;7.22;;
5752;SDS011;2901;42.140;24.760;2022-10-16T16:27:15;9.77;;;6.47;;
5752;SDS011;2901;42.140;24.760;2022-10-16T16:29:40;9.88;;;6.68;;
5752;SDS011;2901;42.140;24.760;2022-10-16T16:32:06;8.38;;;7.55;;
5752;SDS011;2901;42.140;24.760;2022-10-16T16:34:32;25.13;;;9.32;;
5752;SDS011;2901;42.140;24.760;2022-10-16T16:36:57;15.55;;;7.13;;
5752;SDS011;2901;42.140;24.760;2022-10-16T16:39:23;16.70;;;9.18;;
5752;SDS011;2901;42.140;24.760;2022-10-16T16:41:49;11.27;;;8.13;;
5752;SDS011;2901;42.140;24.760;2022-10-16T16:44:15;11.13;;;8.50;;
5752;SDS011;2901;42.140;24.760;2022-10-16T16:46:42;10.93;;;7.95;;
5752;SDS011;2901;42.140;24.760;2022-10-16T16:49:12;13.23;;;9.90;;
5752;SDS011;2901;42.140;24.760;2022-10-16T16:51:39;16.42;;;9.52;;
5752;SDS011;2901;42.140;24.760;2022-10-16T16:54:04;13.57;;;9.02;;
5752;SDS011;2901;42.140;24.760;2022-10-16T16:56:31;11.93;;;6.78;;
5752;SDS011;2901;42.140;24.760;2022-10-16T16:58:57;15.43;;;7.10;;
5752;SDS011;2901;42.140;24.760;2022-10-16T17:01:24;8.57;;;7.25;;
5752;SDS011;2901;42.140;24.760;2022-10-16T17:03:51;15.93;;;7.47;;
5752;SDS011;2901;42.140;24.760;2022-10-16T17:06:19;13.70;;;7.90;;
5752;SDS011;2901;42.140;24.760;2022-10-16T17:08:46;24.40;;;9.30;;
5752;SDS011;2901;42.140;24.760;2022-10-16T17:11:13;15.85;;;8.38;;
5752;SDS011;2901;42.140;24.760;2022-10-16T17:13:50;11.60;;;8.15;;
5752;SDS011;2901;42.140;24.760;2022-10-16T17:16:17;23.63;;;8.95;;
5752;SDS011;2901;42.140;24.760;2022-10-16T17:18:43;31.55;;;10.98;;
5752;SDS011;2901;42.140;24.760;2022-10-16T17:21:08;20.13;;;10.73;;
5752;SDS011;2901;42.140;24.760;2022-10-16T17:23:35;24.23;;;13.15;;
5752;SDS011;2901;42.140;24.760;2022-10-16T17:26:05;33.13;;;14.63;;
5752;SDS011;2901;42.140;24.760;2022-10-16T17:28:33;33.78;;;12.50;;
5752;SDS011;2901;42.140;24.760;2022-10-16T17:31:12;31.10;;;16.02;;
5752;SDS011;2901;42.140;24.760;2022-10-16T17:33:57;18.92;;;11.43;;
5752;SDS011;2901;42.140;24.760;2022-10-16T17:36:23;16.35;;;9.15;;
5752;SDS011;2901;42.140;24.760;2022-10-16T17:38:49;22.67;;;14.63;;
5752;SDS011;2901;42.140;24.760;2022-10-16T17:43:45;15.98;;;9.60;;
5752;SDS011;2901;42.140;24.760;2022-10-16T17:46:11;17.45;;;10.32;;
5752;SDS011;2901;42.140;24.760;2022-10-16T17:48:43;15.90;;;9.10;;
5752;SDS011;2901;42.140;24.760;2022-10-16T17:51:10;17.02;;;9.77;;
5752;SDS011;2901;42.140;24.760;2022-10-16T17:53:37;10.77;;;8.70;;
5752;SDS011;2901;42.140;24.760;2022-10-16T17:56:04;10.93;;;7.50;;
5752;SDS011;2901;42.140;24.760;2022-10-16T17:58:31;8.63;;;7.70;;